sensor_id;sensor_type;location;lat;lon;timestamp;P1;durP1;ratioP1;P2;durP2;ratioP2
73382;SDS011;61600;48.126;11.542;2023-05-15T00:01:20;5.00;;;2.90;;
73382;SDS011;61600;48.126;11.542;2023-05-15T00:03:46;4.93;;;2.75;;
73382;SDS011;61600;48.126;11.542;2023-05-15T00:06:12;4.50;;;3.00;;
73382;SDS011;61600;48.126;11.542;2023-05-15T00:08:38;6.80;;;2.97;;
73382;SDS011;61600;48.126;11.542;2023-05-15T00:11:04;5.47;;;2.97;;
73382;SDS011;61600;48.126;11.542;2023-05-15T00:13:30;4.93;;;2.80;;
73382;SDS011;61600;48.126;11.542;2023-05-15T00:15:57;4.78;;;2.90;;
73382;SDS011;61600;48.126;11.542;2023-05-15T00:18:23;4.55;;;2.72;;
73382;SDS011;61600;48.126;11.542;2023-05-15T00:20:48;5.93;;;3.10;;
73382;SDS011;61600;48.126;11.542;2023-05-15T00:23:14;5.25;;;3.22;;
73382;SDS011;61600;48.126;11.542;2023-05-15T00:25:40;8.25;;;3.63;;
73382;SDS011;61600;48.126;11.542;2023-05-15T00:28:06;5.63;;;3.72;;
73382;SDS011;61600;48.126;11.542;2023-05-15T00:30:32;6.22;;;3.33;;
73382;SDS011;61600;48.126;11.542;2023-05-15T00:32:57;5.93;;;3.40;;
73382;SDS011;61600;48.126;11.542;2023-05-15T00:35:23;6.78;;;3.55;;
73382;SDS011;61600;48.126;11.542;2023-05-15T00:37:49;5.65;;;3.33;;
73382;SDS011;61600;48.126;11.542;2023-05-15T00:40:17;6.05;;;3.60;;
73382;SDS011;61600;48.126;11.542;2023-05-15T00:42:46;5.90;;;3.38;;
73382;SDS011;61600;48.126;11.542;2023-05-15T00:45:13;7.47;;;3.53;;
73382;SDS011;61600;48.126;11.542;2023-05-15T00:47:39;7.60;;;3.17;;
73382;SDS011;61600;48.126;11.542;2023-05-15T00:52:33;6.03;;;3.45;;
73382;SDS011;61600;48.126;11.542;2023-05-15T00:55:00;6.10;;;3.60;;
73382;SDS011;61600;48.126;11.542;2023-05-15T00:57:26;6.28;;;3.72;;
73382;SDS011;61600;48.126;11.542;2023-05-15T00:59:54;5.68;;;3.55;;
73382;SDS011;61600;48.126;11.542;2023-05-15T01:02:21;6.72;;;4.03;;
73382;SDS011;61600;48.126;11.542;2023-05-15T01:04:47;7.55;;;4.50;;
73382;SDS011;61600;48.126;11.542;2023-05-15T01:07:14;7.28;;;4.15;;
73382;SDS011;61600;48.126;11.542;2023-05-15T01:09:42;8.90;;;4.30;;
73382;SDS011;61600;48.126;11.542;2023-05-15T01:12:10;8.90;;;4.70;;
73382;SDS011;61600;48.126;11.542;2023-05-15T01:14:39;10.23;;;5.15;;
73382;SDS011;61600;48.126;11.542;2023-05-15T01:17:05;8.65;;;4.93;;
73382;SDS011;61600;48.126;11.542;2023-05-15T01:19:31;10.00;;;5.85;;
73382;SDS011;61600;48.126;11.542;2023-05-15T01:22:04;9.57;;;5.20;;
73382;SDS011;61600;48.126;11.542;2023-05-15T01:28:20;10.32;;;5.43;;
73382;SDS011;61600;48.126;11.542;2023-05-15T01:30:52;8.52;;;4.53;;
73382;SDS011;61600;48.126;11.542;2023-05-15T01:33:20;9.75;;;4.72;;
73382;SDS011;61600;48.126;11.542;2023-05-15T01:35:50;9.88;;;5.03;;
73382;SDS011;61600;48.126;11.542;2023-05-15T01:38:28;9.93;;;5.13;;
73382;SDS011;61600;48.126;11.542;2023-05-15T01:41:03;8.50;;;4.50;;
73382;SDS011;61600;48.126;11.542;2023-05-15T01:43:35;9.40;;;5.35;;
73382;SDS011;61600;48.126;11.542;2023-05-15T01:46:05;9.90;;;5.45;;
73382;SDS011;61600;48.126;11.542;2023-05-15T01:48:32;10.70;;;5.30;;
73382;SDS011;61600;48.126;11.542;2023-05-15T01:51:01;10.27;;;5.65;;
73382;SDS011;61600;48.126;11.542;2023-05-15T01:53:29;9.93;;;5.05;;
73382;SDS011;61600;48.126;11.542;2023-05-15T01:55:57;9.45;;;4.88;;
73382;SDS011;61600;48.126;11.542;2023-05-15T01:58:24;8.93;;;4.65;;
73382;SDS011;61600;48.126;11.542;2023-05-15T02:03:17;11.20;;;5.13;;
73382;SDS011;61600;48.126;11.542;2023-05-15T02:08:10;10.20;;;5.72;;
73382;SDS011;61600;48.126;11.542;2023-05-15T02:10:37;11.38;;;5.70;;
73382;SDS011;61600;48.126;11.542;2023-05-15T02:13:04;10.68;;;5.70;;
73382;SDS011;61600;48.126;11.542;2023-05-15T02:15:33;11.32;;;5.72;;
73382;SDS011;61600;48.126;11.542;2023-05-15T02:18:00;10.88;;;6.00;;
73382;SDS011;61600;48.126;11.542;2023-05-15T02:20:25;12.27;;;6.53;;
73382;SDS011;61600;48.126;11.542;2023-05-15T02:22:51;11.70;;;5.47;;
73382;SDS011;61600;48.126;11.542;2023-05-15T02:25:17;13.25;;;6.15;;
73382;SDS011;61600;48.126;11.542;2023-05-15T02:27:54;11.30;;;6.00;;
73382;SDS011;61600;48.126;11.542;2023-05-15T02:30:31;12.48;;;6.30;;
73382;SDS011;61600;48.126;11.542;2023-05-15T02:36:06;10.88;;;6.45;;
73382;SDS011;61600;48.126;11.542;2023-05-15T02:38:38;10.63;;;5.80;;
73382;SDS011;61600;48.126;11.542;2023-05-15T02:41:09;11.90;;;6.47;;
73382;SDS011;61600;48.126;11.542;2023-05-15T02:43:35;12.25;;;6.18;;
73382;SDS011;61600;48.126;11.542;2023-05-15T02:46:03;12.88;;;6.18;;
73382;SDS011;61600;48.126;11.542;2023-05-15T02:48:31;11.25;;;5.70;;
73382;SDS011;61600;48.126;11.542;2023-05-15T02:51:01;11.35;;;6.22;;
73382;SDS011;61600;48.126;11.542;2023-05-15T02:53:27;9.82;;;5.60;;
73382;SDS011;61600;48.126;11.542;2023-05-15T02:55:53;12.30;;;6.10;;
73382;SDS011;61600;48.126;11.542;2023-05-15T02:58:19;9.38;;;5.25;;
73382;SDS011;61600;48.126;11.542;2023-05-15T03:00:45;10.45;;;6.00;;
73382;SDS011;61600;48.126;11.542;2023-05-15T03:03:11;11.32;;;5.90;;
73382;SDS011;61600;48.126;11.542;2023-05-15T03:05:36;11.48;;;5.63;;
73382;SDS011;61600;48.126;11.542;2023-05-15T03:08:03;10.50;;;5.50;;
73382;SDS011;61600;48.126;11.542;2023-05-15T03:12:55;9.00;;;4.80;;
73382;SDS011;61600;48.126;11.542;2023-05-15T03:15:24;10.90;;;5.60;;
73382;SDS011;61600;48.126;11.542;2023-05-15T03:17:49;11.25;;;5.22;;
73382;SDS011;61600;48.126;11.542;2023-05-15T03:20:16;10.65;;;5.55;;
73382;SDS011;61600;48.126;11.542;2023-05-15T03:22:42;11.00;;;5.57;;
73382;SDS011;61600;48.126;11.542;2023-05-15T03:25:09;9.88;;;5.60;;
73382;SDS011;61600;48.126;11.542;2023-05-15T03:27:35;9.48;;;5.05;;
73382;SDS011;61600;48.126;11.542;2023-05-15T03:30:02;9.77;;;5.18;;
73382;SDS011;61600;48.126;11.542;2023-05-15T03:32:29;9.05;;;5.20;;
73382;SDS011;61600;48.126;11.542;2023-05-15T03:34:54;10.75;;;5.15;;
73382;SDS011;61600;48.126;11.542;2023-05-15T03:37:20;8.95;;;5.20;;
73382;SDS011;61600;48.126;11.542;2023-05-15T03:39:46;9.85;;;4.85;;
73382;SDS011;61600;48.126;11.542;2023-05-15T03:42:12;10.35;;;5.22;;
73382;SDS011;61600;48.126;11.542;2023-05-15T03:44:37;8.90;;;4.88;;
73382;SDS011;61600;48.126;11.542;2023-05-15T03:47:03;11.88;;;5.75;;
73382;SDS011;61600;48.126;11.542;2023-05-15T03:49:29;10.07;;;5.15;;
73382;SDS011;61600;48.126;11.542;2023-05-15T03:51:55;9.40;;;5.25;;
73382;SDS011;61600;48.126;11.542;2023-05-15T03:54:21;9.82;;;5.10;;
73382;SDS011;61600;48.126;11.542;2023-05-15T03:56:47;9.98;;;5.13;;
73382;SDS011;61600;48.126;11.542;2023-05-15T03:59:13;9.85;;;5.72;;
73382;SDS011;61600;48.126;11.542;2023-05-15T04:01:39;9.05;;;5.20;;
73382;SDS011;61600;48.126;11.542;2023-05-15T04:04:04;9.45;;;4.93;;
73382;SDS011;61600;48.126;11.542;2023-05-15T04:06:30;10.35;;;5.97;;
73382;SDS011;61600;48.126;11.542;2023-05-15T04:08:56;10.52;;;5.20;;
73382;SDS011;61600;48.126;11.542;2023-05-15T04:11:22;9.90;;;5.72;;
73382;SDS011;61600;48.126;11.542;2023-05-15T04:13:48;11.18;;;6.25;;
73382;SDS011;61600;48.126;11.542;2023-05-15T04:16:13;8.95;;;5.10;;
73382;SDS011;61600;48.126;11.542;2023-05-15T04:18:40;13.65;;;6.40;;
73382;SDS011;61600;48.126;11.542;2023-05-15T04:21:05;10.88;;;6.38;;
73382;SDS011;61600;48.126;11.542;2023-05-15T04:23:31;10.55;;;5.80;;
73382;SDS011;61600;48.126;11.542;2023-05-15T04:25:57;11.77;;;5.72;;
73382;SDS011;61600;48.126;11.542;2023-05-15T04:28:23;10.30;;;5.97;;
73382;SDS011;61600;48.126;11.542;2023-05-15T04:30:49;11.10;;;5.38;;
73382;SDS011;61600;48.126;11.542;2023-05-15T04:33:15;13.02;;;6.00;;
73382;SDS011;61600;48.126;11.542;2023-05-15T04:35:41;11.43;;;6.25;;
73382;SDS011;61600;48.126;11.542;2023-05-15T04:38:07;13.52;;;6.53;;
73382;SDS011;61600;48.126;11.542;2023-05-15T04:40:33;14.15;;;6.95;;
73382;SDS011;61600;48.126;11.542;2023-05-15T04:42:58;10.60;;;6.13;;
73382;SDS011;61600;48.126;11.542;2023-05-15T04:45:25;12.13;;;5.78;;
73382;SDS011;61600;48.126;11.542;2023-05-15T04:47:50;11.75;;;6.25;;
73382;SDS011;61600;48.126;11.542;2023-05-15T04:50:16;10.52;;;6.05;;
73382;SDS011;61600;48.126;11.542;2023-05-15T04:52:42;10.82;;;5.93;;
73382;SDS011;61600;48.126;11.542;2023-05-15T04:55:08;15.40;;;6.88;;
73382;SDS011;61600;48.126;11.542;2023-05-15T04:57:34;11.07;;;6.30;;
73382;SDS011;61600;48.126;11.542;2023-05-15T05:00:00;11.05;;;6.22;;
73382;SDS011;61600;48.126;11.542;2023-05-15T05:02:26;12.35;;;6.38;;
73382;SDS011;61600;48.126;11.542;2023-05-15T05:04:52;10.30;;;5.88;;
73382;SDS011;61600;48.126;11.542;2023-05-15T05:07:18;12.00;;;6.60;;
73382;SDS011;61600;48.126;11.542;2023-05-15T05:09:44;12.63;;;6.47;;
73382;SDS011;61600;48.126;11.542;2023-05-15T05:12:10;11.63;;;6.47;;
73382;SDS011;61600;48.126;11.542;2023-05-15T05:14:35;10.25;;;5.55;;
73382;SDS011;61600;48.126;11.542;2023-05-15T05:17:02;11.95;;;5.82;;
73382;SDS011;61600;48.126;11.542;2023-05-15T05:19:28;10.48;;;5.78;;
73382;SDS011;61600;48.126;11.542;2023-05-15T05:21:54;10.50;;;6.05;;
73382;SDS011;61600;48.126;11.542;2023-05-15T05:24:20;11.48;;;6.07;;
73382;SDS011;61600;48.126;11.542;2023-05-15T05:26:46;11.20;;;5.55;;
73382;SDS011;61600;48.126;11.542;2023-05-15T05:29:12;12.15;;;6.45;;
73382;SDS011;61600;48.126;11.542;2023-05-15T05:31:38;14.77;;;6.40;;
73382;SDS011;61600;48.126;11.542;2023-05-15T05:34:04;11.27;;;6.03;;
73382;SDS011;61600;48.126;11.542;2023-05-15T05:36:30;11.75;;;6.60;;
73382;SDS011;61600;48.126;11.542;2023-05-15T05:38:55;11.35;;;6.18;;
73382;SDS011;61600;48.126;11.542;2023-05-15T05:41:21;11.93;;;6.28;;
73382;SDS011;61600;48.126;11.542;2023-05-15T05:43:47;13.00;;;5.35;;
73382;SDS011;61600;48.126;11.542;2023-05-15T05:46:13;14.18;;;6.82;;
73382;SDS011;61600;48.126;11.542;2023-05-15T05:48:39;11.93;;;6.25;;
73382;SDS011;61600;48.126;11.542;2023-05-15T05:51:05;12.82;;;6.10;;
73382;SDS011;61600;48.126;11.542;2023-05-15T05:53:31;11.10;;;6.10;;
73382;SDS011;61600;48.126;11.542;2023-05-15T05:55:56;10.50;;;6.00;;
73382;SDS011;61600;48.126;11.542;2023-05-15T05:58:22;11.07;;;5.85;;
73382;SDS011;61600;48.126;11.542;2023-05-15T06:00:48;10.43;;;5.80;;
73382;SDS011;61600;48.126;11.542;2023-05-15T06:03:14;13.05;;;5.75;;
73382;SDS011;61600;48.126;11.542;2023-05-15T06:05:40;12.65;;;7.43;;
73382;SDS011;61600;48.126;11.542;2023-05-15T06:08:06;11.45;;;6.28;;
73382;SDS011;61600;48.126;11.542;2023-05-15T06:10:32;12.25;;;6.15;;
73382;SDS011;61600;48.126;11.542;2023-05-15T06:12:58;9.88;;;5.65;;
73382;SDS011;61600;48.126;11.542;2023-05-15T06:15:24;9.85;;;5.50;;
73382;SDS011;61600;48.126;11.542;2023-05-15T06:17:50;11.50;;;6.28;;
73382;SDS011;61600;48.126;11.542;2023-05-15T06:20:16;11.65;;;6.68;;
73382;SDS011;61600;48.126;11.542;2023-05-15T06:22:42;10.68;;;6.07;;
73382;SDS011;61600;48.126;11.542;2023-05-15T06:25:08;12.10;;;6.45;;
73382;SDS011;61600;48.126;11.542;2023-05-15T06:27:39;12.00;;;6.35;;
73382;SDS011;61600;48.126;11.542;2023-05-15T06:30:06;9.77;;;5.90;;
73382;SDS011;61600;48.126;11.542;2023-05-15T06:32:33;11.68;;;6.15;;
73382;SDS011;61600;48.126;11.542;2023-05-15T06:34:59;12.75;;;6.45;;
73382;SDS011;61600;48.126;11.542;2023-05-15T06:37:25;11.95;;;6.47;;
73382;SDS011;61600;48.126;11.542;2023-05-15T06:39:53;10.45;;;6.13;;
73382;SDS011;61600;48.126;11.542;2023-05-15T06:42:21;10.32;;;5.70;;
73382;SDS011;61600;48.126;11.542;2023-05-15T06:44:47;9.75;;;5.80;;
73382;SDS011;61600;48.126;11.542;2023-05-15T06:47:14;13.00;;;5.85;;
73382;SDS011;61600;48.126;11.542;2023-05-15T06:49:40;10.10;;;5.85;;
73382;SDS011;61600;48.126;11.542;2023-05-15T06:52:06;10.65;;;6.40;;
73382;SDS011;61600;48.126;11.542;2023-05-15T06:54:32;9.38;;;5.63;;
73382;SDS011;61600;48.126;11.542;2023-05-15T06:56:58;11.80;;;5.60;;
73382;SDS011;61600;48.126;11.542;2023-05-15T06:59:23;10.82;;;5.60;;
73382;SDS011;61600;48.126;11.542;2023-05-15T07:01:50;12.30;;;6.68;;
73382;SDS011;61600;48.126;11.542;2023-05-15T07:04:16;11.02;;;5.60;;
73382;SDS011;61600;48.126;11.542;2023-05-15T07:06:42;8.98;;;4.95;;
73382;SDS011;61600;48.126;11.542;2023-05-15T07:09:08;9.15;;;5.40;;
73382;SDS011;61600;48.126;11.542;2023-05-15T07:11:33;8.93;;;5.43;;
73382;SDS011;61600;48.126;11.542;2023-05-15T07:14:02;9.32;;;5.75;;
73382;SDS011;61600;48.126;11.542;2023-05-15T07:16:28;9.38;;;5.55;;
73382;SDS011;61600;48.126;11.542;2023-05-15T07:18:55;8.50;;;5.03;;
73382;SDS011;61600;48.126;11.542;2023-05-15T07:21:21;12.50;;;5.53;;
73382;SDS011;61600;48.126;11.542;2023-05-15T07:23:46;11.65;;;5.20;;
73382;SDS011;61600;48.126;11.542;2023-05-15T07:26:13;9.27;;;4.97;;
73382;SDS011;61600;48.126;11.542;2023-05-15T07:28:39;10.13;;;5.45;;
73382;SDS011;61600;48.126;11.542;2023-05-15T07:31:05;9.00;;;4.53;;
73382;SDS011;61600;48.126;11.542;2023-05-15T07:33:31;8.13;;;4.35;;
73382;SDS011;61600;48.126;11.542;2023-05-15T07:35:57;8.93;;;4.70;;
73382;SDS011;61600;48.126;11.542;2023-05-15T07:38:23;8.95;;;4.05;;
73382;SDS011;61600;48.126;11.542;2023-05-15T07:40:49;8.85;;;4.20;;
73382;SDS011;61600;48.126;11.542;2023-05-15T07:43:15;6.47;;;3.97;;
73382;SDS011;61600;48.126;11.542;2023-05-15T07:45:40;7.75;;;4.25;;
73382;SDS011;61600;48.126;11.542;2023-05-15T07:48:13;10.38;;;4.90;;
73382;SDS011;61600;48.126;11.542;2023-05-15T07:50:40;7.00;;;4.10;;
73382;SDS011;61600;48.126;11.542;2023-05-15T07:53:06;6.43;;;4.10;;
73382;SDS011;61600;48.126;11.542;2023-05-15T07:55:31;6.57;;;3.50;;
73382;SDS011;61600;48.126;11.542;2023-05-15T07:57:57;7.55;;;3.95;;
73382;SDS011;61600;48.126;11.542;2023-05-15T08:00:23;5.15;;;3.45;;
73382;SDS011;61600;48.126;11.542;2023-05-15T08:02:49;6.93;;;3.92;;
73382;SDS011;61600;48.126;11.542;2023-05-15T08:05:14;6.03;;;3.65;;
73382;SDS011;61600;48.126;11.542;2023-05-15T08:07:41;7.15;;;3.90;;
73382;SDS011;61600;48.126;11.542;2023-05-15T08:10:07;7.88;;;4.45;;
73382;SDS011;61600;48.126;11.542;2023-05-15T08:12:33;6.18;;;3.60;;
73382;SDS011;61600;48.126;11.542;2023-05-15T08:14:58;6.68;;;3.25;;
73382;SDS011;61600;48.126;11.542;2023-05-15T08:17:24;9.75;;;4.28;;
73382;SDS011;61600;48.126;11.542;2023-05-15T08:19:50;7.55;;;3.97;;
73382;SDS011;61600;48.126;11.542;2023-05-15T08:22:17;6.05;;;3.38;;
73382;SDS011;61600;48.126;11.542;2023-05-15T08:24:43;5.85;;;3.80;;
73382;SDS011;61600;48.126;11.542;2023-05-15T08:27:09;6.50;;;3.35;;
73382;SDS011;61600;48.126;11.542;2023-05-15T08:29:35;8.82;;;4.40;;
73382;SDS011;61600;48.126;11.542;2023-05-15T08:32:01;6.38;;;3.90;;
73382;SDS011;61600;48.126;11.542;2023-05-15T08:34:28;5.53;;;3.42;;
73382;SDS011;61600;48.126;11.542;2023-05-15T08:36:54;5.97;;;3.53;;
73382;SDS011;61600;48.126;11.542;2023-05-15T08:39:21;7.63;;;3.60;;
73382;SDS011;61600;48.126;11.542;2023-05-15T08:44:44;6.45;;;3.75;;
73382;SDS011;61600;48.126;11.542;2023-05-15T08:47:10;6.63;;;3.85;;
73382;SDS011;61600;48.126;11.542;2023-05-15T08:49:45;8.18;;;3.85;;
73382;SDS011;61600;48.126;11.542;2023-05-15T08:52:31;7.05;;;3.90;;
73382;SDS011;61600;48.126;11.542;2023-05-15T08:54:57;10.15;;;3.97;;
73382;SDS011;61600;48.126;11.542;2023-05-15T08:57:24;6.65;;;3.80;;
73382;SDS011;61600;48.126;11.542;2023-05-15T09:02:17;7.57;;;3.55;;
73382;SDS011;61600;48.126;11.542;2023-05-15T09:07:10;7.13;;;4.00;;
73382;SDS011;61600;48.126;11.542;2023-05-15T09:09:36;6.50;;;3.60;;
73382;SDS011;61600;48.126;11.542;2023-05-15T09:12:03;6.93;;;4.43;;
73382;SDS011;61600;48.126;11.542;2023-05-15T09:14:31;5.30;;;3.45;;
73382;SDS011;61600;48.126;11.542;2023-05-15T09:16:57;6.60;;;3.83;;
73382;SDS011;61600;48.126;11.542;2023-05-15T09:19:23;8.35;;;3.33;;
73382;SDS011;61600;48.126;11.542;2023-05-15T09:21:49;4.70;;;2.92;;
73382;SDS011;61600;48.126;11.542;2023-05-15T09:26:46;7.75;;;3.88;;
73382;SDS011;61600;48.126;11.542;2023-05-15T09:29:26;5.10;;;3.05;;
73382;SDS011;61600;48.126;11.542;2023-05-15T09:31:52;5.93;;;3.33;;
73382;SDS011;61600;48.126;11.542;2023-05-15T09:34:18;6.95;;;3.92;;
73382;SDS011;61600;48.126;11.542;2023-05-15T09:36:44;6.85;;;3.30;;
73382;SDS011;61600;48.126;11.542;2023-05-15T09:39:10;6.55;;;3.50;;
73382;SDS011;61600;48.126;11.542;2023-05-15T09:41:36;6.40;;;3.50;;
73382;SDS011;61600;48.126;11.542;2023-05-15T09:44:06;7.35;;;3.38;;
73382;SDS011;61600;48.126;11.542;2023-05-15T09:46:43;7.32;;;4.07;;
73382;SDS011;61600;48.126;11.542;2023-05-15T09:49:09;5.35;;;3.17;;
73382;SDS011;61600;48.126;11.542;2023-05-15T09:51:35;5.45;;;3.28;;
73382;SDS011;61600;48.126;11.542;2023-05-15T09:54:01;6.70;;;3.00;;
73382;SDS011;61600;48.126;11.542;2023-05-15T09:56:27;6.53;;;3.35;;
73382;SDS011;61600;48.126;11.542;2023-05-15T09:58:57;5.95;;;3.15;;
73382;SDS011;61600;48.126;11.542;2023-05-15T10:01:24;5.53;;;3.33;;
73382;SDS011;61600;48.126;11.542;2023-05-15T10:03:57;4.90;;;2.97;;
73382;SDS011;61600;48.126;11.542;2023-05-15T10:06:31;5.93;;;3.08;;
73382;SDS011;61600;48.126;11.542;2023-05-15T10:09:02;7.88;;;2.97;;
73382;SDS011;61600;48.126;11.542;2023-05-15T10:11:36;6.88;;;3.47;;
73382;SDS011;61600;48.126;11.542;2023-05-15T10:14:04;8.20;;;3.17;;
73382;SDS011;61600;48.126;11.542;2023-05-15T10:16:35;6.22;;;3.22;;
73382;SDS011;61600;48.126;11.542;2023-05-15T10:19:05;5.15;;;3.08;;
73382;SDS011;61600;48.126;11.542;2023-05-15T10:21:34;6.10;;;3.70;;
73382;SDS011;61600;48.126;11.542;2023-05-15T10:24:01;5.40;;;3.25;;
73382;SDS011;61600;48.126;11.542;2023-05-15T10:26:37;6.45;;;2.97;;
73382;SDS011;61600;48.126;11.542;2023-05-15T10:31:35;6.68;;;3.55;;
73382;SDS011;61600;48.126;11.542;2023-05-15T10:34:02;7.35;;;3.63;;
73382;SDS011;61600;48.126;11.542;2023-05-15T10:36:29;5.57;;;3.38;;
73382;SDS011;61600;48.126;11.542;2023-05-15T10:39:00;7.18;;;3.75;;
73382;SDS011;61600;48.126;11.542;2023-05-15T10:41:27;5.28;;;3.50;;
73382;SDS011;61600;48.126;11.542;2023-05-15T10:43:58;5.40;;;3.50;;
73382;SDS011;61600;48.126;11.542;2023-05-15T10:46:25;5.82;;;3.70;;
73382;SDS011;61600;48.126;11.542;2023-05-15T10:48:52;5.05;;;3.38;;
73382;SDS011;61600;48.126;11.542;2023-05-15T10:51:22;10.07;;;4.97;;
73382;SDS011;61600;48.126;11.542;2023-05-15T10:53:50;8.13;;;3.97;;
73382;SDS011;61600;48.126;11.542;2023-05-15T10:56:16;6.05;;;3.85;;
73382;SDS011;61600;48.126;11.542;2023-05-15T10:58:46;6.75;;;4.15;;
73382;SDS011;61600;48.126;11.542;2023-05-15T11:01:37;6.95;;;4.30;;
73382;SDS011;61600;48.126;11.542;2023-05-15T11:06:36;8.15;;;4.20;;
73382;SDS011;61600;48.126;11.542;2023-05-15T11:14:23;5.50;;;4.00;;
73382;SDS011;61600;48.126;11.542;2023-05-15T11:27:27;7.38;;;4.53;;
73382;SDS011;61600;48.126;11.542;2023-05-15T11:37:41;5.72;;;3.65;;
73382;SDS011;61600;48.126;11.542;2023-05-15T11:40:11;8.00;;;4.82;;
73382;SDS011;61600;48.126;11.542;2023-05-15T11:42:39;9.18;;;4.82;;
73382;SDS011;61600;48.126;11.542;2023-05-15T11:47:34;9.18;;;4.35;;
73382;SDS011;61600;48.126;11.542;2023-05-15T11:50:02;7.68;;;4.40;;
73382;SDS011;61600;48.126;11.542;2023-05-15T11:52:29;9.52;;;4.82;;
73382;SDS011;61600;48.126;11.542;2023-05-15T11:54:55;9.70;;;4.70;;
73382;SDS011;61600;48.126;11.542;2023-05-15T11:57:22;7.82;;;4.43;;
73382;SDS011;61600;48.126;11.542;2023-05-15T11:59:48;7.07;;;3.95;;
73382;SDS011;61600;48.126;11.542;2023-05-15T12:02:18;8.25;;;4.15;;
73382;SDS011;61600;48.126;11.542;2023-05-15T12:04:44;9.18;;;3.65;;
73382;SDS011;61600;48.126;11.542;2023-05-15T12:07:13;7.55;;;4.93;;
73382;SDS011;61600;48.126;11.542;2023-05-15T12:12:06;8.63;;;3.88;;
73382;SDS011;61600;48.126;11.542;2023-05-15T12:14:38;7.57;;;3.53;;
73382;SDS011;61600;48.126;11.542;2023-05-15T12:17:05;6.60;;;3.70;;
73382;SDS011;61600;48.126;11.542;2023-05-15T12:19:34;8.77;;;4.38;;
73382;SDS011;61600;48.126;11.542;2023-05-15T12:22:05;10.02;;;4.53;;
73382;SDS011;61600;48.126;11.542;2023-05-15T12:24:36;10.25;;;5.10;;
73382;SDS011;61600;48.126;11.542;2023-05-15T12:27:04;7.82;;;4.30;;
73382;SDS011;61600;48.126;11.542;2023-05-15T12:29:32;5.43;;;3.20;;
73382;SDS011;61600;48.126;11.542;2023-05-15T12:31:58;7.65;;;4.10;;
73382;SDS011;61600;48.126;11.542;2023-05-15T12:34:24;6.55;;;3.65;;
73382;SDS011;61600;48.126;11.542;2023-05-15T12:36:50;9.43;;;3.97;;
73382;SDS011;61600;48.126;11.542;2023-05-15T12:39:16;7.20;;;4.47;;
73382;SDS011;61600;48.126;11.542;2023-05-15T12:41:42;10.10;;;3.67;;
73382;SDS011;61600;48.126;11.542;2023-05-15T12:44:16;7.75;;;3.88;;
73382;SDS011;61600;48.126;11.542;2023-05-15T12:46:42;6.25;;;3.78;;
73382;SDS011;61600;48.126;11.542;2023-05-15T12:49:08;6.53;;;3.58;;
73382;SDS011;61600;48.126;11.542;2023-05-15T12:51:42;6.22;;;3.92;;
73382;SDS011;61600;48.126;11.542;2023-05-15T12:54:19;7.45;;;4.18;;
73382;SDS011;61600;48.126;11.542;2023-05-15T12:56:48;7.90;;;3.40;;
73382;SDS011;61600;48.126;11.542;2023-05-15T12:59:14;9.93;;;4.05;;
73382;SDS011;61600;48.126;11.542;2023-05-15T13:01:40;8.57;;;3.80;;
73382;SDS011;61600;48.126;11.542;2023-05-15T13:04:09;8.38;;;3.95;;
73382;SDS011;61600;48.126;11.542;2023-05-15T13:06:36;5.57;;;3.33;;
73382;SDS011;61600;48.126;11.542;2023-05-15T13:09:03;6.22;;;3.00;;
73382;SDS011;61600;48.126;11.542;2023-05-15T13:11:29;4.85;;;2.95;;
73382;SDS011;61600;48.126;11.542;2023-05-15T13:13:58;4.25;;;2.80;;
73382;SDS011;61600;48.126;11.542;2023-05-15T13:16:24;6.35;;;2.70;;
73382;SDS011;61600;48.126;11.542;2023-05-15T13:18:54;9.13;;;3.13;;
73382;SDS011;61600;48.126;11.542;2023-05-15T13:21:22;5.20;;;2.35;;
73382;SDS011;61600;48.126;11.542;2023-05-15T13:23:49;8.80;;;2.83;;
73382;SDS011;61600;48.126;11.542;2023-05-15T13:26:16;4.68;;;2.63;;
73382;SDS011;61600;48.126;11.542;2023-05-15T13:28:42;5.85;;;2.95;;
73382;SDS011;61600;48.126;11.542;2023-05-15T13:31:08;4.80;;;2.60;;
73382;SDS011;61600;48.126;11.542;2023-05-15T13:33:33;4.90;;;2.58;;
73382;SDS011;61600;48.126;11.542;2023-05-15T13:36:00;6.35;;;3.08;;
73382;SDS011;61600;48.126;11.542;2023-05-15T13:38:26;4.43;;;2.78;;
73382;SDS011;61600;48.126;11.542;2023-05-15T13:40:52;4.72;;;2.80;;
73382;SDS011;61600;48.126;11.542;2023-05-15T13:43:17;4.75;;;2.90;;
73382;SDS011;61600;48.126;11.542;2023-05-15T13:45:43;4.68;;;2.80;;
73382;SDS011;61600;48.126;11.542;2023-05-15T13:48:09;4.90;;;2.97;;
73382;SDS011;61600;48.126;11.542;2023-05-15T13:50:38;4.93;;;3.08;;
73382;SDS011;61600;48.126;11.542;2023-05-15T13:53:18;4.38;;;2.85;;
73382;SDS011;61600;48.126;11.542;2023-05-15T13:55:44;5.88;;;3.00;;
73382;SDS011;61600;48.126;11.542;2023-05-15T13:58:11;5.25;;;2.85;;
73382;SDS011;61600;48.126;11.542;2023-05-15T14:00:38;6.03;;;3.42;;
73382;SDS011;61600;48.126;11.542;2023-05-15T14:03:04;6.32;;;3.05;;
73382;SDS011;61600;48.126;11.542;2023-05-15T14:05:30;6.15;;;2.90;;
73382;SDS011;61600;48.126;11.542;2023-05-15T14:07:56;4.47;;;2.85;;
73382;SDS011;61600;48.126;11.542;2023-05-15T14:10:22;6.70;;;3.78;;
73382;SDS011;61600;48.126;11.542;2023-05-15T14:12:48;6.40;;;3.33;;
73382;SDS011;61600;48.126;11.542;2023-05-15T14:15:14;4.35;;;2.90;;
73382;SDS011;61600;48.126;11.542;2023-05-15T14:17:40;4.03;;;2.33;;
73382;SDS011;61600;48.126;11.542;2023-05-15T14:20:08;5.03;;;2.63;;
73382;SDS011;61600;48.126;11.542;2023-05-15T14:22:34;4.22;;;2.38;;
73382;SDS011;61600;48.126;11.542;2023-05-15T14:25:01;4.10;;;2.25;;
73382;SDS011;61600;48.126;11.542;2023-05-15T14:27:28;4.13;;;2.22;;
73382;SDS011;61600;48.126;11.542;2023-05-15T14:29:54;2.13;;;1.55;;
73382;SDS011;61600;48.126;11.542;2023-05-15T14:32:21;3.58;;;2.20;;
73382;SDS011;61600;48.126;11.542;2023-05-15T14:34:47;3.20;;;1.63;;
73382;SDS011;61600;48.126;11.542;2023-05-15T14:37:14;3.90;;;2.17;;
73382;SDS011;61600;48.126;11.542;2023-05-15T14:39:40;3.42;;;2.20;;
73382;SDS011;61600;48.126;11.542;2023-05-15T14:42:06;3.85;;;2.20;;
73382;SDS011;61600;48.126;11.542;2023-05-15T14:44:33;5.10;;;3.03;;
73382;SDS011;61600;48.126;11.542;2023-05-15T14:47:04;4.10;;;2.30;;
73382;SDS011;61600;48.126;11.542;2023-05-15T14:49:31;5.00;;;2.40;;
73382;SDS011;61600;48.126;11.542;2023-05-15T14:51:57;3.08;;;1.85;;
73382;SDS011;61600;48.126;11.542;2023-05-15T14:54:23;3.35;;;2.00;;
73382;SDS011;61600;48.126;11.542;2023-05-15T14:56:49;4.35;;;1.95;;
73382;SDS011;61600;48.126;11.542;2023-05-15T14:59:15;3.33;;;1.90;;
73382;SDS011;61600;48.126;11.542;2023-05-15T15:01:41;4.45;;;1.90;;
73382;SDS011;61600;48.126;11.542;2023-05-15T15:04:26;3.35;;;2.13;;
73382;SDS011;61600;48.126;11.542;2023-05-15T15:06:54;3.53;;;2.03;;
73382;SDS011;61600;48.126;11.542;2023-05-15T15:09:23;3.53;;;2.08;;
73382;SDS011;61600;48.126;11.542;2023-05-15T15:11:50;4.38;;;2.22;;
73382;SDS011;61600;48.126;11.542;2023-05-15T15:14:16;3.70;;;2.17;;
73382;SDS011;61600;48.126;11.542;2023-05-15T15:16:42;3.53;;;1.90;;
73382;SDS011;61600;48.126;11.542;2023-05-15T15:19:08;4.40;;;2.50;;
73382;SDS011;61600;48.126;11.542;2023-05-15T15:21:34;4.25;;;1.95;;
73382;SDS011;61600;48.126;11.542;2023-05-15T15:24:06;4.03;;;2.30;;
73382;SDS011;61600;48.126;11.542;2023-05-15T15:26:32;4.28;;;2.55;;
73382;SDS011;61600;48.126;11.542;2023-05-15T15:28:57;4.45;;;2.53;;
73382;SDS011;61600;48.126;11.542;2023-05-15T15:31:26;4.05;;;2.40;;